Wildomar, CA (92595)

7:58 PM PDT on September 20, 2014 (GMT -0700)
Stonehurst | Change Station
CLOSE
Current Station
Personal Weather Station
Location: Wildomar, CA
Elevation: 1253 ft
Nearby Weather Stations
Active Advisory: Areal Flood Advisory

Elev 1253 ft 33.59 °N, 117.25 °W | Updated 13 minutes ago

Clear
Clear
69.2 °F
Feels Like 69.2 °F
N
0.0
Wind Variable Wind from SE
Gusts 3.0 mph

Today
High -- | Low -- °F
--% Chance of Precip.
Yesterday
High -- | Low -- °F
Precip. -- in
6:35 AM 6:48 PM
Waning Crescent, 9% visible
Pressure 29.92 in
Visibility 10.0 miles
Clouds Clear
Dew Point 60 °F
Humidity 73%
Rainfall 0.00 in
Snow Depth 0 in , 1 in , 1 in
UV 0 out of 12
Pollen 5.50 out of 12
Ozone Good
PM2.5 Good
Flu Activity Not available.
METAR KF70 210215Z AUTO 16008KT 10SM CLR 21/15 A2992 RMK AO1

More Conditions Fewer Conditions

Pressure 29.92 in
Visibility 10.0 miles
Clouds Clear
Dew Point 60 °F
Humidity 73%
Rainfall 0.00 in
Snow Depth 0 in , 1 in , 1 in
UV 0 out of 12
Pollen 5.50 out of 12
Ozone Good
PM2.5 Good
Flu Activity Not available.
METAR KF70 210215Z AUTO 16008KT 10SM CLR 21/15 A2992 RMK AO1

More Conditions Fewer Conditions

10-Day Weather Forecast

Almanac

Astronomy

Sep. 20, 2014 Rise Set
Actual Time 6:35 AM PDT 6:48 PM PDT
Civil Twilight 6:10 AM PDT 7:13 PM PDT
Nautical Twilight 5:41 AM PDT 7:42 PM PDT
Astronomical Twilight 5:12 AM PDT 8:11 PM PDT
Moon 3:26 AM PDT (9/20) 4:48 PM PDT (9/20)
Length of Visible Light 13h 02m
Length of Day
12h 12m
Tomorrow will be 2m 3s shorter.
Waning Crescent, 9% of the Moon is Illuminated
Today
Waning Crescent
Sep 24
New
Oct 1
First Quarter
Oct 8
Full
Oct 15
Last Quarter

Today's Extremes

State Highs State Lows

Community

WunderPhotos

Upload Photos

1,755,066 photos uploaded!

WunderBlogs® & News

Nearby

Air Quality

  Air Quality AQ Index Pollutant
Yesterday Good
PM10
Current Good
OZONE
Current Good
PM2.5
Sunday Good
PM10
Sunday Moderate
OZONE
Sunday Good
CO
Sunday Good
NO2

Snow Depth

Station Depth Elevation
Spratt Creek 0 in 6200 ft
Leavitt Meadows 1 in 7200 ft
Burnside Lake 1 in 8139 ft
Summit Meadow 0 in 9122 ft
Monitor Pass 0 in 8350 ft

Earthquake Activity

City Distance Mag. Time & Date
Aguanga, California 28 miles 2.5 1:38 AM PDT
2014-09-19
Minimum magnitude displayed is 2.5.

Coastal Water Temperatures

Place Temperature
La Jolla, CA 73.0 °F
San Diego, CA 75.9 °F

Nearby Weather Stations